sensor_id;sensor_type;location;lat;lon;timestamp;P1;durP1;ratioP1;P2;durP2;ratioP2
15486;SDS011;7845;53.698;10.078;2023-05-07T00:01:46;8.00;;;5.80;;
15486;SDS011;7845;53.698;10.078;2023-05-07T00:04:13;9.97;;;7.10;;
15486;SDS011;7845;53.698;10.078;2023-05-07T00:06:41;9.27;;;6.00;;
15486;SDS011;7845;53.698;10.078;2023-05-07T00:09:06;8.60;;;6.13;;
15486;SDS011;7845;53.698;10.078;2023-05-07T00:11:35;7.73;;;5.33;;
15486;SDS011;7845;53.698;10.078;2023-05-07T00:14:01;8.33;;;6.10;;
15486;SDS011;7845;53.698;10.078;2023-05-07T00:16:29;7.67;;;5.50;;
15486;SDS011;7845;53.698;10.078;2023-05-07T00:18:57;11.80;;;6.93;;
15486;SDS011;7845;53.698;10.078;2023-05-07T00:21:22;8.93;;;6.33;;
15486;SDS011;7845;53.698;10.078;2023-05-07T00:23:52;9.53;;;6.07;;
15486;SDS011;7845;53.698;10.078;2023-05-07T00:26:24;9.10;;;6.47;;
15486;SDS011;7845;53.698;10.078;2023-05-07T00:28:52;9.77;;;6.83;;
15486;SDS011;7845;53.698;10.078;2023-05-07T00:31:17;9.40;;;6.13;;
15486;SDS011;7845;53.698;10.078;2023-05-07T00:33:42;9.63;;;6.20;;
15486;SDS011;7845;53.698;10.078;2023-05-07T00:36:08;8.47;;;6.17;;
15486;SDS011;7845;53.698;10.078;2023-05-07T00:38:35;10.37;;;6.70;;
15486;SDS011;7845;53.698;10.078;2023-05-07T00:41:00;10.87;;;6.30;;
15486;SDS011;7845;53.698;10.078;2023-05-07T00:43:27;9.00;;;6.50;;
15486;SDS011;7845;53.698;10.078;2023-05-07T00:45:54;8.30;;;6.00;;
15486;SDS011;7845;53.698;10.078;2023-05-07T00:48:20;9.37;;;6.20;;
15486;SDS011;7845;53.698;10.078;2023-05-07T00:50:46;10.03;;;7.03;;
15486;SDS011;7845;53.698;10.078;2023-05-07T00:53:12;9.00;;;6.40;;
15486;SDS011;7845;53.698;10.078;2023-05-07T00:55:38;7.27;;;5.23;;
15486;SDS011;7845;53.698;10.078;2023-05-07T00:58:04;9.33;;;6.17;;
15486;SDS011;7845;53.698;10.078;2023-05-07T01:00:31;9.03;;;6.50;;
15486;SDS011;7845;53.698;10.078;2023-05-07T01:02:59;7.77;;;5.40;;
15486;SDS011;7845;53.698;10.078;2023-05-07T01:05:26;8.93;;;5.47;;
15486;SDS011;7845;53.698;10.078;2023-05-07T01:07:53;7.90;;;5.77;;
15486;SDS011;7845;53.698;10.078;2023-05-07T01:10:20;10.57;;;7.20;;
15486;SDS011;7845;53.698;10.078;2023-05-07T01:12:45;7.37;;;5.40;;
15486;SDS011;7845;53.698;10.078;2023-05-07T01:15:13;8.63;;;5.80;;
15486;SDS011;7845;53.698;10.078;2023-05-07T01:17:40;9.40;;;6.80;;
15486;SDS011;7845;53.698;10.078;2023-05-07T01:20:10;8.50;;;5.57;;
15486;SDS011;7845;53.698;10.078;2023-05-07T01:22:39;9.43;;;6.53;;
15486;SDS011;7845;53.698;10.078;2023-05-07T01:25:05;9.50;;;6.73;;
15486;SDS011;7845;53.698;10.078;2023-05-07T01:27:33;10.30;;;7.47;;
15486;SDS011;7845;53.698;10.078;2023-05-07T01:30:01;7.83;;;5.37;;
15486;SDS011;7845;53.698;10.078;2023-05-07T01:35:21;8.87;;;6.30;;
15486;SDS011;7845;53.698;10.078;2023-05-07T01:37:54;9.10;;;6.37;;
15486;SDS011;7845;53.698;10.078;2023-05-07T01:40:20;8.80;;;6.10;;
15486;SDS011;7845;53.698;10.078;2023-05-07T01:42:46;8.93;;;6.20;;
15486;SDS011;7845;53.698;10.078;2023-05-07T01:45:13;9.13;;;6.00;;
15486;SDS011;7845;53.698;10.078;2023-05-07T01:47:39;9.03;;;5.50;;
15486;SDS011;7845;53.698;10.078;2023-05-07T01:50:06;7.73;;;5.63;;
15486;SDS011;7845;53.698;10.078;2023-05-07T01:52:33;8.70;;;5.63;;
15486;SDS011;7845;53.698;10.078;2023-05-07T01:54:59;9.03;;;6.80;;
15486;SDS011;7845;53.698;10.078;2023-05-07T01:57:25;7.90;;;5.60;;
15486;SDS011;7845;53.698;10.078;2023-05-07T01:59:50;8.93;;;6.60;;
15486;SDS011;7845;53.698;10.078;2023-05-07T02:02:17;12.33;;;7.67;;
15486;SDS011;7845;53.698;10.078;2023-05-07T02:04:42;9.77;;;7.27;;
15486;SDS011;7845;53.698;10.078;2023-05-07T02:07:07;9.07;;;5.73;;
15486;SDS011;7845;53.698;10.078;2023-05-07T02:09:33;9.70;;;6.93;;
15486;SDS011;7845;53.698;10.078;2023-05-07T02:11:58;9.90;;;7.40;;
15486;SDS011;7845;53.698;10.078;2023-05-07T02:14:23;8.57;;;5.90;;
15486;SDS011;7845;53.698;10.078;2023-05-07T02:16:51;9.07;;;6.00;;
15486;SDS011;7845;53.698;10.078;2023-05-07T02:19:16;7.50;;;5.20;;
15486;SDS011;7845;53.698;10.078;2023-05-07T02:21:41;7.73;;;5.40;;
15486;SDS011;7845;53.698;10.078;2023-05-07T02:24:07;9.17;;;5.97;;
15486;SDS011;7845;53.698;10.078;2023-05-07T02:26:32;7.17;;;4.90;;
15486;SDS011;7845;53.698;10.078;2023-05-07T02:28:59;7.47;;;5.03;;
15486;SDS011;7845;53.698;10.078;2023-05-07T02:31:24;6.93;;;4.70;;
15486;SDS011;7845;53.698;10.078;2023-05-07T02:33:50;8.50;;;5.83;;
15486;SDS011;7845;53.698;10.078;2023-05-07T02:36:15;9.87;;;6.67;;
15486;SDS011;7845;53.698;10.078;2023-05-07T02:38:40;8.30;;;5.30;;
15486;SDS011;7845;53.698;10.078;2023-05-07T02:41:06;10.30;;;5.83;;
15486;SDS011;7845;53.698;10.078;2023-05-07T02:43:31;10.30;;;6.07;;
15486;SDS011;7845;53.698;10.078;2023-05-07T02:46:06;7.93;;;5.33;;
15486;SDS011;7845;53.698;10.078;2023-05-07T02:48:34;8.00;;;5.27;;
15486;SDS011;7845;53.698;10.078;2023-05-07T02:51:00;9.83;;;7.10;;
15486;SDS011;7845;53.698;10.078;2023-05-07T02:53:26;7.73;;;5.53;;
15486;SDS011;7845;53.698;10.078;2023-05-07T02:55:52;9.30;;;6.50;;
15486;SDS011;7845;53.698;10.078;2023-05-07T02:58:19;10.00;;;7.00;;
15486;SDS011;7845;53.698;10.078;2023-05-07T03:00:46;10.10;;;7.07;;
15486;SDS011;7845;53.698;10.078;2023-05-07T03:03:11;8.70;;;5.60;;
15486;SDS011;7845;53.698;10.078;2023-05-07T03:05:37;8.67;;;5.60;;
15486;SDS011;7845;53.698;10.078;2023-05-07T03:08:02;9.43;;;6.13;;
15486;SDS011;7845;53.698;10.078;2023-05-07T03:10:28;9.80;;;7.37;;
15486;SDS011;7845;53.698;10.078;2023-05-07T03:12:54;9.50;;;6.83;;
15486;SDS011;7845;53.698;10.078;2023-05-07T03:15:20;10.33;;;7.43;;
15486;SDS011;7845;53.698;10.078;2023-05-07T03:17:46;9.80;;;7.70;;
15486;SDS011;7845;53.698;10.078;2023-05-07T03:20:12;9.93;;;7.00;;
15486;SDS011;7845;53.698;10.078;2023-05-07T03:22:39;8.57;;;5.73;;
15486;SDS011;7845;53.698;10.078;2023-05-07T03:25:05;7.77;;;5.83;;
15486;SDS011;7845;53.698;10.078;2023-05-07T03:27:31;9.40;;;6.10;;
15486;SDS011;7845;53.698;10.078;2023-05-07T03:29:57;9.23;;;6.57;;
15486;SDS011;7845;53.698;10.078;2023-05-07T03:32:22;8.13;;;5.40;;
15486;SDS011;7845;53.698;10.078;2023-05-07T03:34:47;7.50;;;5.23;;
15486;SDS011;7845;53.698;10.078;2023-05-07T03:37:13;8.53;;;6.00;;
15486;SDS011;7845;53.698;10.078;2023-05-07T03:39:38;8.90;;;6.50;;
15486;SDS011;7845;53.698;10.078;2023-05-07T03:42:03;8.87;;;5.53;;
15486;SDS011;7845;53.698;10.078;2023-05-07T03:44:31;9.20;;;6.97;;
15486;SDS011;7845;53.698;10.078;2023-05-07T03:47:02;8.30;;;6.07;;
15486;SDS011;7845;53.698;10.078;2023-05-07T03:49:27;9.17;;;6.63;;
15486;SDS011;7845;53.698;10.078;2023-05-07T03:51:53;7.87;;;5.53;;
15486;SDS011;7845;53.698;10.078;2023-05-07T03:54:18;8.17;;;5.97;;
15486;SDS011;7845;53.698;10.078;2023-05-07T03:56:44;8.50;;;5.43;;
15486;SDS011;7845;53.698;10.078;2023-05-07T03:59:09;8.00;;;5.27;;
15486;SDS011;7845;53.698;10.078;2023-05-07T04:01:36;8.50;;;6.10;;
15486;SDS011;7845;53.698;10.078;2023-05-07T04:04:01;7.90;;;5.90;;
15486;SDS011;7845;53.698;10.078;2023-05-07T04:06:28;8.77;;;6.43;;
15486;SDS011;7845;53.698;10.078;2023-05-07T04:08:53;9.00;;;6.27;;
15486;SDS011;7845;53.698;10.078;2023-05-07T04:11:18;8.10;;;5.47;;
15486;SDS011;7845;53.698;10.078;2023-05-07T04:13:45;8.70;;;6.30;;
15486;SDS011;7845;53.698;10.078;2023-05-07T04:16:10;8.47;;;5.93;;
15486;SDS011;7845;53.698;10.078;2023-05-07T04:18:36;8.33;;;5.93;;
15486;SDS011;7845;53.698;10.078;2023-05-07T04:21:01;9.13;;;5.23;;
15486;SDS011;7845;53.698;10.078;2023-05-07T04:23:27;10.00;;;6.30;;
15486;SDS011;7845;53.698;10.078;2023-05-07T04:25:52;8.50;;;5.63;;
15486;SDS011;7845;53.698;10.078;2023-05-07T04:28:19;7.83;;;5.67;;
15486;SDS011;7845;53.698;10.078;2023-05-07T04:30:44;8.33;;;6.33;;
15486;SDS011;7845;53.698;10.078;2023-05-07T04:33:11;7.87;;;5.80;;
15486;SDS011;7845;53.698;10.078;2023-05-07T04:35:36;8.03;;;6.10;;
15486;SDS011;7845;53.698;10.078;2023-05-07T04:38:02;7.73;;;5.30;;
15486;SDS011;7845;53.698;10.078;2023-05-07T04:40:28;8.43;;;5.20;;
15486;SDS011;7845;53.698;10.078;2023-05-07T04:42:54;9.10;;;6.33;;
15486;SDS011;7845;53.698;10.078;2023-05-07T04:45:20;8.30;;;6.57;;
15486;SDS011;7845;53.698;10.078;2023-05-07T04:47:47;8.03;;;5.80;;
15486;SDS011;7845;53.698;10.078;2023-05-07T04:50:13;9.50;;;6.27;;
15486;SDS011;7845;53.698;10.078;2023-05-07T04:52:41;9.97;;;6.80;;
15486;SDS011;7845;53.698;10.078;2023-05-07T04:55:07;8.30;;;6.17;;
15486;SDS011;7845;53.698;10.078;2023-05-07T04:57:32;8.67;;;6.20;;
15486;SDS011;7845;53.698;10.078;2023-05-07T04:59:58;7.57;;;5.63;;
15486;SDS011;7845;53.698;10.078;2023-05-07T05:02:23;9.23;;;5.63;;
15486;SDS011;7845;53.698;10.078;2023-05-07T05:04:48;8.83;;;6.00;;
15486;SDS011;7845;53.698;10.078;2023-05-07T05:07:14;7.50;;;4.87;;
15486;SDS011;7845;53.698;10.078;2023-05-07T05:09:39;8.93;;;4.53;;
15486;SDS011;7845;53.698;10.078;2023-05-07T05:12:05;6.87;;;4.87;;
15486;SDS011;7845;53.698;10.078;2023-05-07T05:14:32;7.20;;;4.73;;
15486;SDS011;7845;53.698;10.078;2023-05-07T05:16:57;7.47;;;4.80;;
15486;SDS011;7845;53.698;10.078;2023-05-07T05:19:22;8.77;;;5.33;;
15486;SDS011;7845;53.698;10.078;2023-05-07T05:21:50;6.90;;;4.57;;
15486;SDS011;7845;53.698;10.078;2023-05-07T05:24:16;9.20;;;5.93;;
15486;SDS011;7845;53.698;10.078;2023-05-07T05:26:41;5.53;;;4.00;;
15486;SDS011;7845;53.698;10.078;2023-05-07T05:29:07;7.27;;;4.17;;
15486;SDS011;7845;53.698;10.078;2023-05-07T05:31:35;6.20;;;4.20;;
15486;SDS011;7845;53.698;10.078;2023-05-07T05:34:01;9.03;;;6.20;;
15486;SDS011;7845;53.698;10.078;2023-05-07T05:36:27;8.67;;;6.63;;
15486;SDS011;7845;53.698;10.078;2023-05-07T05:38:55;11.20;;;6.80;;
15486;SDS011;7845;53.698;10.078;2023-05-07T05:41:20;8.43;;;5.50;;
15486;SDS011;7845;53.698;10.078;2023-05-07T05:43:46;8.50;;;6.07;;
15486;SDS011;7845;53.698;10.078;2023-05-07T05:46:12;7.53;;;5.03;;
15486;SDS011;7845;53.698;10.078;2023-05-07T05:48:37;8.40;;;5.33;;
15486;SDS011;7845;53.698;10.078;2023-05-07T05:51:02;8.80;;;5.57;;
15486;SDS011;7845;53.698;10.078;2023-05-07T05:53:28;8.20;;;5.70;;
15486;SDS011;7845;53.698;10.078;2023-05-07T05:55:56;8.30;;;5.53;;
15486;SDS011;7845;53.698;10.078;2023-05-07T05:58:21;7.73;;;5.40;;
15486;SDS011;7845;53.698;10.078;2023-05-07T06:00:47;7.33;;;5.47;;
15486;SDS011;7845;53.698;10.078;2023-05-07T06:03:13;9.00;;;5.53;;
15486;SDS011;7845;53.698;10.078;2023-05-07T06:05:39;8.87;;;5.63;;
15486;SDS011;7845;53.698;10.078;2023-05-07T06:08:04;7.10;;;5.47;;
15486;SDS011;7845;53.698;10.078;2023-05-07T06:10:31;6.07;;;4.33;;
15486;SDS011;7845;53.698;10.078;2023-05-07T06:12:56;6.40;;;4.53;;
15486;SDS011;7845;53.698;10.078;2023-05-07T06:15:21;6.80;;;4.50;;
15486;SDS011;7845;53.698;10.078;2023-05-07T06:17:47;8.23;;;4.80;;
15486;SDS011;7845;53.698;10.078;2023-05-07T06:20:12;9.57;;;5.23;;
15486;SDS011;7845;53.698;10.078;2023-05-07T06:22:39;7.87;;;5.13;;
15486;SDS011;7845;53.698;10.078;2023-05-07T06:25:04;7.50;;;5.10;;
15486;SDS011;7845;53.698;10.078;2023-05-07T06:27:32;5.93;;;3.90;;
15486;SDS011;7845;53.698;10.078;2023-05-07T06:29:57;8.00;;;5.57;;
15486;SDS011;7845;53.698;10.078;2023-05-07T06:32:22;6.37;;;4.33;;
15486;SDS011;7845;53.698;10.078;2023-05-07T06:34:48;6.83;;;4.53;;
15486;SDS011;7845;53.698;10.078;2023-05-07T06:37:13;6.87;;;5.10;;
15486;SDS011;7845;53.698;10.078;2023-05-07T06:39:38;6.67;;;5.10;;
15486;SDS011;7845;53.698;10.078;2023-05-07T06:42:04;7.50;;;5.00;;
15486;SDS011;7845;53.698;10.078;2023-05-07T06:44:30;6.17;;;4.50;;
15486;SDS011;7845;53.698;10.078;2023-05-07T06:46:56;5.40;;;3.97;;
15486;SDS011;7845;53.698;10.078;2023-05-07T06:49:21;6.20;;;4.43;;
15486;SDS011;7845;53.698;10.078;2023-05-07T06:51:47;6.70;;;4.50;;
15486;SDS011;7845;53.698;10.078;2023-05-07T06:54:12;5.93;;;3.70;;
15486;SDS011;7845;53.698;10.078;2023-05-07T06:56:38;7.80;;;4.93;;
15486;SDS011;7845;53.698;10.078;2023-05-07T06:59:03;6.87;;;5.10;;
15486;SDS011;7845;53.698;10.078;2023-05-07T07:01:29;6.93;;;5.20;;
15486;SDS011;7845;53.698;10.078;2023-05-07T07:03:54;6.17;;;4.20;;
15486;SDS011;7845;53.698;10.078;2023-05-07T07:06:20;7.73;;;4.40;;
15486;SDS011;7845;53.698;10.078;2023-05-07T07:08:45;7.43;;;4.63;;
15486;SDS011;7845;53.698;10.078;2023-05-07T07:11:11;5.70;;;3.80;;
15486;SDS011;7845;53.698;10.078;2023-05-07T07:13:36;6.37;;;4.40;;
15486;SDS011;7845;53.698;10.078;2023-05-07T07:16:02;6.50;;;4.50;;
15486;SDS011;7845;53.698;10.078;2023-05-07T07:18:29;6.07;;;4.30;;
15486;SDS011;7845;53.698;10.078;2023-05-07T07:20:55;5.40;;;3.57;;
15486;SDS011;7845;53.698;10.078;2023-05-07T07:23:21;5.70;;;3.47;;
15486;SDS011;7845;53.698;10.078;2023-05-07T07:25:46;5.57;;;4.07;;
15486;SDS011;7845;53.698;10.078;2023-05-07T07:28:12;6.40;;;4.50;;
15486;SDS011;7845;53.698;10.078;2023-05-07T07:30:38;6.13;;;3.87;;
15486;SDS011;7845;53.698;10.078;2023-05-07T07:33:04;6.90;;;4.83;;
15486;SDS011;7845;53.698;10.078;2023-05-07T07:35:34;5.50;;;4.07;;
15486;SDS011;7845;53.698;10.078;2023-05-07T07:38:00;6.13;;;4.23;;
15486;SDS011;7845;53.698;10.078;2023-05-07T07:40:26;6.07;;;4.00;;
15486;SDS011;7845;53.698;10.078;2023-05-07T07:42:53;6.13;;;4.33;;
15486;SDS011;7845;53.698;10.078;2023-05-07T07:45:21;5.77;;;3.80;;
15486;SDS011;7845;53.698;10.078;2023-05-07T07:47:47;5.77;;;3.83;;
15486;SDS011;7845;53.698;10.078;2023-05-07T07:50:12;7.60;;;4.90;;
15486;SDS011;7845;53.698;10.078;2023-05-07T07:52:39;6.53;;;4.20;;
15486;SDS011;7845;53.698;10.078;2023-05-07T07:55:04;6.40;;;4.30;;
15486;SDS011;7845;53.698;10.078;2023-05-07T07:57:32;6.53;;;4.90;;
15486;SDS011;7845;53.698;10.078;2023-05-07T07:59:57;5.80;;;3.93;;
15486;SDS011;7845;53.698;10.078;2023-05-07T08:02:23;6.07;;;4.27;;
15486;SDS011;7845;53.698;10.078;2023-05-07T08:04:48;6.80;;;4.23;;
15486;SDS011;7845;53.698;10.078;2023-05-07T08:07:15;5.80;;;4.07;;
15486;SDS011;7845;53.698;10.078;2023-05-07T08:09:43;5.37;;;3.73;;
15486;SDS011;7845;53.698;10.078;2023-05-07T08:12:08;5.77;;;4.00;;
15486;SDS011;7845;53.698;10.078;2023-05-07T08:14:34;4.60;;;3.13;;
15486;SDS011;7845;53.698;10.078;2023-05-07T08:17:02;4.90;;;3.47;;
15486;SDS011;7845;53.698;10.078;2023-05-07T08:19:27;5.50;;;4.23;;
15486;SDS011;7845;53.698;10.078;2023-05-07T08:21:53;5.63;;;3.80;;
15486;SDS011;7845;53.698;10.078;2023-05-07T08:24:18;5.40;;;3.80;;
15486;SDS011;7845;53.698;10.078;2023-05-07T08:26:44;5.33;;;3.53;;
15486;SDS011;7845;53.698;10.078;2023-05-07T08:29:10;6.47;;;4.20;;
15486;SDS011;7845;53.698;10.078;2023-05-07T08:31:36;5.20;;;3.60;;
15486;SDS011;7845;53.698;10.078;2023-05-07T08:34:03;8.33;;;4.60;;
15486;SDS011;7845;53.698;10.078;2023-05-07T08:36:31;5.60;;;3.73;;
15486;SDS011;7845;53.698;10.078;2023-05-07T08:38:56;5.20;;;3.90;;
15486;SDS011;7845;53.698;10.078;2023-05-07T08:41:22;6.70;;;4.10;;
15486;SDS011;7845;53.698;10.078;2023-05-07T08:43:48;6.60;;;3.67;;
15486;SDS011;7845;53.698;10.078;2023-05-07T08:46:17;4.53;;;3.10;;
15486;SDS011;7845;53.698;10.078;2023-05-07T08:48:49;5.67;;;3.57;;
15486;SDS011;7845;53.698;10.078;2023-05-07T08:51:19;4.93;;;3.47;;
15486;SDS011;7845;53.698;10.078;2023-05-07T08:53:46;4.80;;;3.27;;
15486;SDS011;7845;53.698;10.078;2023-05-07T08:56:15;4.90;;;3.23;;
15486;SDS011;7845;53.698;10.078;2023-05-07T08:58:43;5.77;;;3.50;;
15486;SDS011;7845;53.698;10.078;2023-05-07T09:01:09;5.00;;;3.80;;
15486;SDS011;7845;53.698;10.078;2023-05-07T09:03:38;5.30;;;3.20;;
15486;SDS011;7845;53.698;10.078;2023-05-07T09:06:04;4.57;;;3.23;;
15486;SDS011;7845;53.698;10.078;2023-05-07T09:08:30;5.30;;;3.63;;
15486;SDS011;7845;53.698;10.078;2023-05-07T09:10:55;4.90;;;3.47;;
15486;SDS011;7845;53.698;10.078;2023-05-07T09:13:20;5.23;;;3.20;;
15486;SDS011;7845;53.698;10.078;2023-05-07T09:15:47;6.20;;;3.80;;
15486;SDS011;7845;53.698;10.078;2023-05-07T09:18:13;5.00;;;3.33;;
15486;SDS011;7845;53.698;10.078;2023-05-07T09:20:38;4.63;;;3.00;;
15486;SDS011;7845;53.698;10.078;2023-05-07T09:23:06;6.43;;;3.53;;
15486;SDS011;7845;53.698;10.078;2023-05-07T09:25:32;4.63;;;3.00;;
15486;SDS011;7845;53.698;10.078;2023-05-07T09:27:59;5.80;;;3.20;;
15486;SDS011;7845;53.698;10.078;2023-05-07T09:30:28;5.20;;;3.13;;
15486;SDS011;7845;53.698;10.078;2023-05-07T09:32:55;4.50;;;2.97;;
15486;SDS011;7845;53.698;10.078;2023-05-07T09:35:21;4.93;;;3.10;;
15486;SDS011;7845;53.698;10.078;2023-05-07T09:37:49;5.17;;;3.17;;
15486;SDS011;7845;53.698;10.078;2023-05-07T09:40:21;4.93;;;3.20;;
15486;SDS011;7845;53.698;10.078;2023-05-07T09:42:47;4.47;;;2.80;;
15486;SDS011;7845;53.698;10.078;2023-05-07T09:45:14;4.40;;;2.90;;
15486;SDS011;7845;53.698;10.078;2023-05-07T09:47:39;4.83;;;3.27;;
15486;SDS011;7845;53.698;10.078;2023-05-07T09:50:11;5.67;;;3.43;;
15486;SDS011;7845;53.698;10.078;2023-05-07T09:52:38;5.03;;;3.10;;
15486;SDS011;7845;53.698;10.078;2023-05-07T09:55:06;5.10;;;3.53;;
15486;SDS011;7845;53.698;10.078;2023-05-07T09:57:32;5.10;;;3.13;;
15486;SDS011;7845;53.698;10.078;2023-05-07T09:59:59;6.00;;;3.83;;
15486;SDS011;7845;53.698;10.078;2023-05-07T10:02:29;5.40;;;3.23;;
15486;SDS011;7845;53.698;10.078;2023-05-07T10:04:55;4.70;;;3.13;;
15486;SDS011;7845;53.698;10.078;2023-05-07T10:07:21;5.30;;;2.83;;
15486;SDS011;7845;53.698;10.078;2023-05-07T10:09:47;4.57;;;3.13;;
15486;SDS011;7845;53.698;10.078;2023-05-07T10:12:14;4.37;;;2.70;;
15486;SDS011;7845;53.698;10.078;2023-05-07T10:14:40;4.87;;;3.10;;
15486;SDS011;7845;53.698;10.078;2023-05-07T10:17:05;4.50;;;2.97;;
15486;SDS011;7845;53.698;10.078;2023-05-07T10:19:31;5.00;;;3.00;;
15486;SDS011;7845;53.698;10.078;2023-05-07T10:21:59;4.37;;;2.70;;
15486;SDS011;7845;53.698;10.078;2023-05-07T10:24:34;4.13;;;2.87;;
15486;SDS011;7845;53.698;10.078;2023-05-07T10:27:03;4.33;;;2.53;;
15486;SDS011;7845;53.698;10.078;2023-05-07T10:32:22;4.53;;;2.97;;
15486;SDS011;7845;53.698;10.078;2023-05-07T10:34:58;4.73;;;2.90;;
15486;SDS011;7845;53.698;10.078;2023-05-07T10:37:28;6.70;;;3.00;;
15486;SDS011;7845;53.698;10.078;2023-05-07T10:39:54;5.10;;;3.40;;
15486;SDS011;7845;53.698;10.078;2023-05-07T10:42:19;4.40;;;3.03;;
15486;SDS011;7845;53.698;10.078;2023-05-07T10:44:45;4.40;;;3.10;;
15486;SDS011;7845;53.698;10.078;2023-05-07T10:47:12;4.60;;;3.30;;
15486;SDS011;7845;53.698;10.078;2023-05-07T10:52:18;5.10;;;2.90;;
15486;SDS011;7845;53.698;10.078;2023-05-07T10:54:45;4.03;;;2.77;;
15486;SDS011;7845;53.698;10.078;2023-05-07T11:05:25;4.60;;;2.40;;
15486;SDS011;7845;53.698;10.078;2023-05-07T11:07:55;5.60;;;3.00;;
15486;SDS011;7845;53.698;10.078;2023-05-07T11:13:42;4.23;;;2.80;;
15486;SDS011;7845;53.698;10.078;2023-05-07T11:18:48;3.60;;;2.17;;
15486;SDS011;7845;53.698;10.078;2023-05-07T11:24:01;4.30;;;2.53;;
15486;SDS011;7845;53.698;10.078;2023-05-07T11:26:28;4.30;;;3.20;;
15486;SDS011;7845;53.698;10.078;2023-05-07T11:28:59;4.40;;;2.30;;
15486;SDS011;7845;53.698;10.078;2023-05-07T11:31:27;3.80;;;2.13;;
15486;SDS011;7845;53.698;10.078;2023-05-07T11:33:53;4.00;;;2.53;;
15486;SDS011;7845;53.698;10.078;2023-05-07T11:36:21;4.70;;;2.83;;
15486;SDS011;7845;53.698;10.078;2023-05-07T11:38:47;4.57;;;3.00;;
15486;SDS011;7845;53.698;10.078;2023-05-07T11:41:15;4.00;;;2.30;;
15486;SDS011;7845;53.698;10.078;2023-05-07T11:43:55;3.90;;;2.60;;
15486;SDS011;7845;53.698;10.078;2023-05-07T11:46:21;4.73;;;2.80;;
15486;SDS011;7845;53.698;10.078;2023-05-07T11:48:48;4.77;;;2.30;;
15486;SDS011;7845;53.698;10.078;2023-05-07T11:51:13;3.70;;;2.47;;
15486;SDS011;7845;53.698;10.078;2023-05-07T11:53:44;4.33;;;2.40;;
15486;SDS011;7845;53.698;10.078;2023-05-07T11:56:13;4.97;;;3.00;;
15486;SDS011;7845;53.698;10.078;2023-05-07T11:58:39;3.70;;;2.30;;
15486;SDS011;7845;53.698;10.078;2023-05-07T12:01:07;4.00;;;2.73;;
15486;SDS011;7845;53.698;10.078;2023-05-07T12:03:34;4.87;;;3.07;;
15486;SDS011;7845;53.698;10.078;2023-05-07T12:06:05;4.20;;;2.40;;
15486;SDS011;7845;53.698;10.078;2023-05-07T12:08:31;3.83;;;2.23;;
15486;SDS011;7845;53.698;10.078;2023-05-07T12:10:57;3.70;;;2.60;;
15486;SDS011;7845;53.698;10.078;2023-05-07T12:13:24;3.67;;;2.43;;
15486;SDS011;7845;53.698;10.078;2023-05-07T12:15:54;3.50;;;1.90;;
15486;SDS011;7845;53.698;10.078;2023-05-07T12:18:21;4.47;;;2.60;;
15486;SDS011;7845;53.698;10.078;2023-05-07T12:20:48;3.80;;;2.27;;
15486;SDS011;7845;53.698;10.078;2023-05-07T12:23:14;4.67;;;2.70;;
15486;SDS011;7845;53.698;10.078;2023-05-07T12:25:40;4.13;;;2.20;;
15486;SDS011;7845;53.698;10.078;2023-05-07T12:28:16;4.27;;;2.33;;
15486;SDS011;7845;53.698;10.078;2023-05-07T12:30:42;4.07;;;2.50;;
15486;SDS011;7845;53.698;10.078;2023-05-07T12:33:09;4.50;;;2.67;;
15486;SDS011;7845;53.698;10.078;2023-05-07T12:35:36;4.30;;;3.50;;
15486;SDS011;7845;53.698;10.078;2023-05-07T12:38:09;3.70;;;2.60;;
15486;SDS011;7845;53.698;10.078;2023-05-07T12:40:40;3.70;;;2.33;;
15486;SDS011;7845;53.698;10.078;2023-05-07T12:43:07;3.50;;;2.37;;
15486;SDS011;7845;53.698;10.078;2023-05-07T12:45:38;4.23;;;2.83;;
15486;SDS011;7845;53.698;10.078;2023-05-07T12:48:04;4.03;;;2.17;;
15486;SDS011;7845;53.698;10.078;2023-05-07T12:50:33;4.10;;;2.10;;
15486;SDS011;7845;53.698;10.078;2023-05-07T12:53:00;4.00;;;2.57;;
15486;SDS011;7845;53.698;10.078;2023-05-07T12:55:31;4.47;;;2.00;;
15486;SDS011;7845;53.698;10.078;2023-05-07T12:58:00;3.83;;;2.30;;
15486;SDS011;7845;53.698;10.078;2023-05-07T13:00:36;3.40;;;1.97;;
15486;SDS011;7845;53.698;10.078;2023-05-07T13:03:02;3.50;;;2.00;;
15486;SDS011;7845;53.698;10.078;2023-05-07T13:05:27;3.33;;;1.90;;
15486;SDS011;7845;53.698;10.078;2023-05-07T13:08:00;3.70;;;2.30;;
15486;SDS011;7845;53.698;10.078;2023-05-07T13:10:25;4.23;;;2.80;;
15486;SDS011;7845;53.698;10.078;2023-05-07T13:12:51;3.93;;;2.50;;
15486;SDS011;7845;53.698;10.078;2023-05-07T13:15:19;3.57;;;2.37;;
15486;SDS011;7845;53.698;10.078;2023-05-07T13:17:44;3.70;;;2.30;;
15486;SDS011;7845;53.698;10.078;2023-05-07T13:20:10;3.60;;;2.20;;
15486;SDS011;7845;53.698;10.078;2023-05-07T13:22:36;3.73;;;2.10;;
15486;SDS011;7845;53.698;10.078;2023-05-07T13:25:02;3.90;;;1.93;;
15486;SDS011;7845;53.698;10.078;2023-05-07T13:27:27;3.80;;;2.40;;
15486;SDS011;7845;53.698;10.078;2023-05-07T13:29:52;3.73;;;1.90;;
15486;SDS011;7845;53.698;10.078;2023-05-07T13:32:19;4.30;;;2.17;;
15486;SDS011;7845;53.698;10.078;2023-05-07T13:34:44;4.00;;;1.77;;
15486;SDS011;7845;53.698;10.078;2023-05-07T13:37:10;3.80;;;2.20;;
15486;SDS011;7845;53.698;10.078;2023-05-07T13:39:36;5.13;;;2.67;;
15486;SDS011;7845;53.698;10.078;2023-05-07T13:42:03;3.67;;;1.40;;
15486;SDS011;7845;53.698;10.078;2023-05-07T13:44:30;4.40;;;2.40;;
15486;SDS011;7845;53.698;10.078;2023-05-07T13:46:55;3.77;;;1.80;;
15486;SDS011;7845;53.698;10.078;2023-05-07T13:49:22;3.30;;;1.87;;
15486;SDS011;7845;53.698;10.078;2023-05-07T13:51:47;3.40;;;2.00;;
15486;SDS011;7845;53.698;10.078;2023-05-07T13:54:12;4.60;;;2.00;;
15486;SDS011;7845;53.698;10.078;2023-05-07T13:56:38;3.63;;;1.90;;
15486;SDS011;7845;53.698;10.078;2023-05-07T13:59:04;3.53;;;1.80;;
15486;SDS011;7845;53.698;10.078;2023-05-07T14:01:30;4.47;;;2.17;;
15486;SDS011;7845;53.698;10.078;2023-05-07T14:03:57;3.80;;;2.40;;
15486;SDS011;7845;53.698;10.078;2023-05-07T14:06:25;4.40;;;2.30;;
15486;SDS011;7845;53.698;10.078;2023-05-07T14:08:50;4.70;;;2.30;;
15486;SDS011;7845;53.698;10.078;2023-05-07T14:11:16;4.13;;;2.30;;
15486;SDS011;7845;53.698;10.078;2023-05-07T14:13:41;3.90;;;2.30;;
15486;SDS011;7845;53.698;10.078;2023-05-07T14:16:09;3.53;;;2.20;;
15486;SDS011;7845;53.698;10.078;2023-05-07T14:18:35;5.40;;;2.70;;
15486;SDS011;7845;53.698;10.078;2023-05-07T14:21:02;4.70;;;2.27;;
15486;SDS011;7845;53.698;10.078;2023-05-07T14:23:27;4.17;;;2.30;;
15486;SDS011;7845;53.698;10.078;2023-05-07T14:25:53;3.30;;;2.00;;
15486;SDS011;7845;53.698;10.078;2023-05-07T14:28:19;3.30;;;1.83;;
15486;SDS011;7845;53.698;10.078;2023-05-07T14:30:45;3.73;;;2.13;;
15486;SDS011;7845;53.698;10.078;2023-05-07T14:33:12;4.00;;;1.80;;
15486;SDS011;7845;53.698;10.078;2023-05-07T14:35:37;3.00;;;1.67;;
15486;SDS011;7845;53.698;10.078;2023-05-07T14:38:03;3.30;;;1.97;;
15486;SDS011;7845;53.698;10.078;2023-05-07T14:40:28;3.30;;;1.80;;
15486;SDS011;7845;53.698;10.078;2023-05-07T14:42:54;3.60;;;1.80;;
15486;SDS011;7845;53.698;10.078;2023-05-07T14:45:20;3.50;;;1.80;;
15486;SDS011;7845;53.698;10.078;2023-05-07T14:47:46;3.10;;;1.77;;
15486;SDS011;7845;53.698;10.078;2023-05-07T14:50:11;3.37;;;1.80;;
15486;SDS011;7845;53.698;10.078;2023-05-07T14:52:36;4.80;;;3.13;;
15486;SDS011;7845;53.698;10.078;2023-05-07T14:55:02;3.80;;;2.30;;
15486;SDS011;7845;53.698;10.078;2023-05-07T14:57:27;4.53;;;2.30;;
15486;SDS011;7845;53.698;10.078;2023-05-07T14:59:52;3.67;;;2.20;;
15486;SDS011;7845;53.698;10.078;2023-05-07T15:02:18;3.93;;;2.20;;
15486;SDS011;7845;53.698;10.078;2023-05-07T15:04:43;4.07;;;2.30;;
15486;SDS011;7845;53.698;10.078;2023-05-07T15:07:15;4.13;;;2.80;;
15486;SDS011;7845;53.698;10.078;2023-05-07T15:09:41;4.10;;;2.77;;